This is the latest recevied weather packets stored in our database for station/object EA7RX-3. If no packets are shown the sender has not sent any weather packets the latest 10 day(s).
| Time | Temp. | Humidity | Pressure | Rain* | Wind** | Luminosity | Snow |
|---|---|---|---|---|---|---|---|
| 1777818503 | 21.11° C | 48% | 1007.5 hPa | - | - | - | - |
| 1777817901 | 21.67° C | 46% | 1007.7 hPa | - | - | - | - |
| 1777817301 | 21.67° C | 47% | 1007.6 hPa | - | - | - | - |
| 1777816701 | 21.67° C | 49% | 1007.7 hPa | - | - | - | - |
| 1777816101 | 20.56° C | 51% | 1008.1 hPa | - | - | - | - |
| 1777815503 | 20.56° C | 53% | 1008.1 hPa | - | - | - | - |
| 1777814901 | 20.56° C | 54% | 1008.1 hPa | - | - | - | - |
| 1777814303 | 20.56° C | 54% | 1008.1 hPa | - | - | - | - |
| 1777813701 | 19.44° C | 57% | 1008.5 hPa | - | - | - | - |
| 1777813101 | 20° C | 60% | 1008.4 hPa | - | - | - | - |
| 1777812503 | 19.44° C | 63% | 1008.7 hPa | - | - | - | - |
| 1777811903 | 18.89° C | 67% | 1008.8 hPa | - | - | - | - |
| 1777811301 | 19.44° C | 68% | 1008.9 hPa | - | - | - | - |
| 1777810701 | 18.89° C | 67% | 1009.1 hPa | - | - | - | - |
| 1777810101 | 19.44° C | 65% | 1008.8 hPa | - | - | - | - |
| 1777809501 | 18.89° C | 75% | 1009.1 hPa | - | - | - | - |
| 1777808901 | 18.33° C | 84% | 1009.3 hPa | - | - | - | - |
| 1777808301 | 18.33° C | 88% | 1009.8 hPa | - | - | - | - |
| 1777807701 | 18.33° C | 96% | 1009.8 hPa | - | - | - | - |
| 1777807102 | 17.22° C | 10% | - | - | - | - | - |
| 1777806501 | 16.67° C | 10% | - | - | - | - | - |
| 1777805901 | 17.22° C | 10% | - | - | - | - | - |
| 1777805301 | 17.78° C | 10% | - | - | - | - | - |
| 1777804703 | 17.78° C | 95% | 1010.4 hPa | - | - | - | - |
| 1777804101 | 16.67° C | 97% | 1010.7 hPa | - | - | - | - |
* Rain since midnight (hover to see other rain measurements)
** Current wind speed in m/s (hover to see current wind gust speed)